Terminal Aerodrome Forecast
Issued by NWS Pittsburgh, PA

Current Version | Previous Version | Text Only | Print | Product List | Glossary Off
Versions: 1 2 3 4 5 6 7 8 9 10 11 12 13 14 15 16 17 18 19 20 21 22 23 24 25 26 27 28 29 30 31 32 33

499
FTUS41 KPBZ 160158 AAA
TAFPIT
TAF AMD
KPIT 160158Z 1602/1706 13005KT 6SM -SN SCT015 OVC035
      TEMPO 1603/1606 2SM -SN BKN015
     FM160600 17006KT 3SM -SN OVC015
     FM161000 21005KT 6SM -SN OVC008
     FM161500 24007KT P6SM OVC020
     FM162000 24007KT P6SM BKN035=

USA.gov is the U.S. government's official web portal to all federal, state and local government web resources and services.